Proctorville, Ohio
Current Conditions -  °F | °C
As of 12:51 PM on Thursday 29 Jan 2015 (Local Time) from KHTS Reporting Station
Clear Clear  
Wind Chill: 42°   Ceiling: Unl
Heat Index: 48°   Visibility: 10mi
Dew Point: 37°   Wind: 15mph
Humidity: 66%   Direction: 200°SSW
Pressure: 29.88"   Gusts: 22mph
Location:  38.44°N, 82.38°W
Report Text: KHTS 291751Z 20013G19KT 10SM CLR 09/03 A2988 RMK AO2 SLP125 60004 T00890028 10089 21033 58023
Loading
Personal Weather Stations






























Interactive Weather Map New forecast layout! Learn more

10-Day Weather Forecast

Advertisements
Track Severe Weather on mobile